MPTOMPMG

Guest
Details From MPTO - Tocumen Intl
To MPMG - ALBROOK MARCOS A GELABERT INTL
Flight Number -
Tags generated
Created
Modified
Stats Distance 12 nm / 22 km
Max Altitude 500 ft / 152 m
Waypoints 3
Social Downloads 0
Likes 0
Share VATSIM

Download

Looking for another format? Having issues loading an existing format? Contact us
Advertisement - Login to hide

Notes

Basic altitude profile: - Ascent Rate: 2500ft/min - Ascent Speed: 250kts - Cruise Altitude: 35000ft - Cruise Speed: 420kts - Descent Rate: 1500ft/min - Descent Speed: 250kts Options: - Use NATs: yes - Use PACOTS: yes - Use low airways: yes - Use high airways: yes

Route

MPTO TUM MPMG

ID Type Via Altitude Latitude Longitude Leg Dist Tot Dist Heading (true) Name
O MPTO APT - 0 ft / 0 m 9.07136˚ -79.38346˚ - 0 nm - Tocumen Intl
TUM VOR - 500 ft / 152 m 9.05156˚ -79.40006˚ 1 nm 1 nm 220° / 220° TOCUMEN VOR-DME
O MPMG APT - 0 ft / 0 m 8.97334˚ -79.55558˚ 10 nm 11 nm 243° / 243° ALBROOK MARCOS A GELABERT INTL

Altitude Profile

Advertisement - Login to hide

MPTO

Details ICAO MPTO (PTY)
Name Tocumen Intl
Region Panama
Timezone America/Panama (UTC-5.0)
Stats Elevation 135 ft / 41 m (AMSL)
Location 9.071364° -79.383458°
Runways 2
Magnetic Variation 4.531° W

METAR

MPTO 150300Z 28009KT 9999 FEW020 25/23 Q1011 NOSIG

Decode

TAF

TAF MPTO 142300Z 1500/1606 30005KT 9999 FEW020 TEMPO 1500/1504 CAVOK

Decode

Departure Runways

ID Width Length Bearing (true) Bearing (mag) Surface Threshold Offset Overrun Length
03L 200 ft / 61 m 8,798 ft / 2,682 m 30.67° 35.20° Asphalt 0 ft / 0 m 0 ft / 0 m
03R 148 ft / 45 m 10,008 ft / 3,051 m 29.33° 33.86° Concrete 0 ft / 0 m 198 ft / 60 m
21L 148 ft / 45 m 10,008 ft / 3,051 m 209.33° 213.86° Concrete 0 ft / 0 m 198 ft / 60 m
21R 200 ft / 61 m 8,798 ft / 2,682 m 210.67° 215.20° Asphalt 0 ft / 0 m 0 ft / 0 m

MPMG

Details ICAO MPMG (PAC)
Name ALBROOK MARCOS A GELABERT INTL
Region Panama
Timezone America/Panama (UTC-5.0)
Stats Elevation 31 ft / 9 m (AMSL)
Location 8.973341° -79.555585°
Runways 1
Magnetic Variation 4.406° W

METAR

MPMG 150300Z 33006KT 9999 FEW018 25/23 Q1012 NOSIG

Decode

TAF

TAF AMD MPMG 150300Z 1500/1512 CNL

Decode

Destination Runways

ID Width Length Bearing (true) Bearing (mag) Surface Threshold Offset Overrun Length
18 98 ft / 30 m 5,925 ft / 1,806 m 185.03° 189.44° Asphalt 541 ft / 165 m 0 ft / 0 m
36 98 ft / 30 m 5,925 ft / 1,806 m 5.03° 9.44° Asphalt 443 ft / 135 m 0 ft / 0 m